sensor_id;sensor_type;location;lat;lon;timestamp;P1;durP1;ratioP1;P2;durP2;ratioP2
60472;SDS011;46318;52.716;6.444;2023-08-24T00:01:23;4.75;;;4.25;;
60472;SDS011;46318;52.716;6.444;2023-08-24T00:03:48;5.13;;;4.68;;
60472;SDS011;46318;52.716;6.444;2023-08-24T00:06:14;5.55;;;5.05;;
60472;SDS011;46318;52.716;6.444;2023-08-24T00:08:41;5.15;;;4.75;;
60472;SDS011;46318;52.716;6.444;2023-08-24T00:11:08;5.70;;;5.05;;
60472;SDS011;46318;52.716;6.444;2023-08-24T00:13:40;5.45;;;4.95;;
60472;SDS011;46318;52.716;6.444;2023-08-24T00:16:14;6.28;;;4.65;;
60472;SDS011;46318;52.716;6.444;2023-08-24T00:18:44;7.13;;;5.28;;
60472;SDS011;46318;52.716;6.444;2023-08-24T00:21:12;5.10;;;4.60;;
60472;SDS011;46318;52.716;6.444;2023-08-24T00:23:42;5.15;;;4.65;;
60472;SDS011;46318;52.716;6.444;2023-08-24T00:26:09;6.20;;;4.65;;
60472;SDS011;46318;52.716;6.444;2023-08-24T00:28:35;6.30;;;4.70;;
60472;SDS011;46318;52.716;6.444;2023-08-24T00:31:01;5.57;;;4.85;;
60472;SDS011;46318;52.716;6.444;2023-08-24T00:33:27;6.88;;;5.15;;
60472;SDS011;46318;52.716;6.444;2023-08-24T00:35:53;5.90;;;4.90;;
60472;SDS011;46318;52.716;6.444;2023-08-24T00:38:19;5.47;;;4.95;;
60472;SDS011;46318;52.716;6.444;2023-08-24T00:40:45;7.13;;;5.38;;
60472;SDS011;46318;52.716;6.444;2023-08-24T00:43:11;5.32;;;4.80;;
60472;SDS011;46318;52.716;6.444;2023-08-24T00:45:37;7.40;;;5.63;;
60472;SDS011;46318;52.716;6.444;2023-08-24T00:48:03;5.90;;;5.30;;
60472;SDS011;46318;52.716;6.444;2023-08-24T00:50:30;7.28;;;4.78;;
60472;SDS011;46318;52.716;6.444;2023-08-24T00:52:56;5.47;;;4.97;;
60472;SDS011;46318;52.716;6.444;2023-08-24T00:55:22;7.07;;;4.50;;
60472;SDS011;46318;52.716;6.444;2023-08-24T00:57:48;5.07;;;4.65;;
60472;SDS011;46318;52.716;6.444;2023-08-24T01:00:15;5.30;;;4.80;;
60472;SDS011;46318;52.716;6.444;2023-08-24T01:02:42;5.13;;;4.57;;
60472;SDS011;46318;52.716;6.444;2023-08-24T01:05:07;5.75;;;5.22;;
60472;SDS011;46318;52.716;6.444;2023-08-24T01:07:37;6.95;;;4.90;;
60472;SDS011;46318;52.716;6.444;2023-08-24T01:10:05;6.47;;;5.00;;
60472;SDS011;46318;52.716;6.444;2023-08-24T01:12:36;5.60;;;5.05;;
60472;SDS011;46318;52.716;6.444;2023-08-24T01:17:46;6.43;;;5.22;;
60472;SDS011;46318;52.716;6.444;2023-08-24T01:20:15;8.68;;;5.43;;
60472;SDS011;46318;52.716;6.444;2023-08-24T01:22:53;6.10;;;5.50;;
60472;SDS011;46318;52.716;6.444;2023-08-24T01:27:58;6.40;;;5.05;;
60472;SDS011;46318;52.716;6.444;2023-08-24T01:30:25;5.65;;;3.67;;
60472;SDS011;46318;52.716;6.444;2023-08-24T01:32:51;6.43;;;4.93;;
60472;SDS011;46318;52.716;6.444;2023-08-24T01:35:17;6.78;;;5.22;;
60472;SDS011;46318;52.716;6.444;2023-08-24T01:37:43;7.03;;;4.50;;
60472;SDS011;46318;52.716;6.444;2023-08-24T01:40:31;5.95;;;4.82;;
60472;SDS011;46318;52.716;6.444;2023-08-24T01:43:09;4.93;;;4.07;;
60472;SDS011;46318;52.716;6.444;2023-08-24T01:45:38;6.32;;;4.45;;
60472;SDS011;46318;52.716;6.444;2023-08-24T01:48:07;6.72;;;4.18;;
60472;SDS011;46318;52.716;6.444;2023-08-24T01:50:35;7.22;;;4.82;;
60472;SDS011;46318;52.716;6.444;2023-08-24T01:53:01;5.82;;;4.43;;
60472;SDS011;46318;52.716;6.444;2023-08-24T01:55:28;5.68;;;4.50;;
60472;SDS011;46318;52.716;6.444;2023-08-24T01:57:55;6.82;;;4.60;;
60472;SDS011;46318;52.716;6.444;2023-08-24T02:00:21;6.75;;;3.97;;
60472;SDS011;46318;52.716;6.444;2023-08-24T02:02:47;5.75;;;5.00;;
60472;SDS011;46318;52.716;6.444;2023-08-24T02:05:13;7.97;;;5.00;;
60472;SDS011;46318;52.716;6.444;2023-08-24T02:07:39;5.40;;;4.90;;
60472;SDS011;46318;52.716;6.444;2023-08-24T02:10:06;5.55;;;5.03;;
60472;SDS011;46318;52.716;6.444;2023-08-24T02:12:32;7.40;;;5.50;;
60472;SDS011;46318;52.716;6.444;2023-08-24T02:14:58;7.30;;;5.78;;
60472;SDS011;46318;52.716;6.444;2023-08-24T02:17:25;7.88;;;6.05;;
60472;SDS011;46318;52.716;6.444;2023-08-24T02:19:51;6.35;;;5.75;;
60472;SDS011;46318;52.716;6.444;2023-08-24T02:22:17;6.43;;;5.13;;
60472;SDS011;46318;52.716;6.444;2023-08-24T02:24:43;10.00;;;7.50;;
60472;SDS011;46318;52.716;6.444;2023-08-24T02:27:09;8.25;;;5.90;;
60472;SDS011;46318;52.716;6.444;2023-08-24T02:29:35;8.77;;;6.72;;
60472;SDS011;46318;52.716;6.444;2023-08-24T02:32:02;10.45;;;6.60;;
60472;SDS011;46318;52.716;6.444;2023-08-24T02:34:28;7.95;;;6.97;;
60472;SDS011;46318;52.716;6.444;2023-08-24T02:36:54;8.80;;;5.70;;
60472;SDS011;46318;52.716;6.444;2023-08-24T02:39:21;7.97;;;6.10;;
60472;SDS011;46318;52.716;6.444;2023-08-24T02:41:47;6.72;;;5.43;;
60472;SDS011;46318;52.716;6.444;2023-08-24T02:44:14;7.22;;;5.82;;
60472;SDS011;46318;52.716;6.444;2023-08-24T02:46:44;7.95;;;6.32;;
60472;SDS011;46318;52.716;6.444;2023-08-24T02:49:10;7.82;;;5.90;;
60472;SDS011;46318;52.716;6.444;2023-08-24T02:51:36;7.50;;;5.30;;
60472;SDS011;46318;52.716;6.444;2023-08-24T02:54:01;6.10;;;5.50;;
60472;SDS011;46318;52.716;6.444;2023-08-24T02:56:27;7.13;;;6.13;;
60472;SDS011;46318;52.716;6.444;2023-08-24T02:58:53;9.38;;;6.40;;
60472;SDS011;46318;52.716;6.444;2023-08-24T03:01:19;7.30;;;6.50;;
60472;SDS011;46318;52.716;6.444;2023-08-24T03:03:45;7.78;;;6.05;;
60472;SDS011;46318;52.716;6.444;2023-08-24T03:06:11;6.70;;;6.05;;
60472;SDS011;46318;52.716;6.444;2023-08-24T03:08:37;9.32;;;6.50;;
60472;SDS011;46318;52.716;6.444;2023-08-24T03:11:03;8.27;;;6.63;;
60472;SDS011;46318;52.716;6.444;2023-08-24T03:13:29;8.50;;;7.65;;
60472;SDS011;46318;52.716;6.444;2023-08-24T03:15:56;7.65;;;6.07;;
60472;SDS011;46318;52.716;6.444;2023-08-24T03:18:23;8.07;;;7.30;;
60472;SDS011;46318;52.716;6.444;2023-08-24T03:20:49;9.57;;;8.10;;
60472;SDS011;46318;52.716;6.444;2023-08-24T03:23:15;8.82;;;6.50;;
60472;SDS011;46318;52.716;6.444;2023-08-24T03:25:42;8.63;;;7.82;;
60472;SDS011;46318;52.716;6.444;2023-08-24T03:28:08;9.05;;;7.60;;
60472;SDS011;46318;52.716;6.444;2023-08-24T03:30:35;7.95;;;7.15;;
60472;SDS011;46318;52.716;6.444;2023-08-24T03:33:02;11.52;;;8.35;;
60472;SDS011;46318;52.716;6.444;2023-08-24T03:35:33;9.63;;;8.60;;
60472;SDS011;46318;52.716;6.444;2023-08-24T03:37:59;9.30;;;8.38;;
60472;SDS011;46318;52.716;6.444;2023-08-24T03:40:25;9.30;;;8.45;;
60472;SDS011;46318;52.716;6.444;2023-08-24T03:42:52;10.85;;;7.00;;
60472;SDS011;46318;52.716;6.444;2023-08-24T03:45:18;9.80;;;8.35;;
60472;SDS011;46318;52.716;6.444;2023-08-24T03:47:45;9.88;;;8.20;;
60472;SDS011;46318;52.716;6.444;2023-08-24T03:50:11;8.43;;;7.45;;
60472;SDS011;46318;52.716;6.444;2023-08-24T03:52:37;10.52;;;8.63;;
60472;SDS011;46318;52.716;6.444;2023-08-24T03:55:04;11.15;;;10.00;;
60472;SDS011;46318;52.716;6.444;2023-08-24T03:57:32;11.40;;;8.60;;
60472;SDS011;46318;52.716;6.444;2023-08-24T03:59:58;9.85;;;8.85;;
60472;SDS011;46318;52.716;6.444;2023-08-24T04:02:23;9.90;;;8.52;;
60472;SDS011;46318;52.716;6.444;2023-08-24T04:04:52;10.55;;;9.45;;
60472;SDS011;46318;52.716;6.444;2023-08-24T04:07:18;11.15;;;10.10;;
60472;SDS011;46318;52.716;6.444;2023-08-24T04:09:45;11.73;;;10.07;;
60472;SDS011;46318;52.716;6.444;2023-08-24T04:12:11;11.63;;;10.48;;
60472;SDS011;46318;52.716;6.444;2023-08-24T04:14:37;8.68;;;7.80;;
60472;SDS011;46318;52.716;6.444;2023-08-24T04:17:03;10.45;;;9.02;;
60472;SDS011;46318;52.716;6.444;2023-08-24T04:19:29;12.25;;;10.98;;
60472;SDS011;46318;52.716;6.444;2023-08-24T04:21:55;10.88;;;9.85;;
60472;SDS011;46318;52.716;6.444;2023-08-24T04:24:20;10.38;;;9.38;;
60472;SDS011;46318;52.716;6.444;2023-08-24T04:26:46;10.38;;;8.35;;
60472;SDS011;46318;52.716;6.444;2023-08-24T04:29:12;12.15;;;8.93;;
60472;SDS011;46318;52.716;6.444;2023-08-24T04:31:38;10.50;;;9.55;;
60472;SDS011;46318;52.716;6.444;2023-08-24T04:34:06;10.68;;;9.63;;
60472;SDS011;46318;52.716;6.444;2023-08-24T04:36:32;14.52;;;9.90;;
60472;SDS011;46318;52.716;6.444;2023-08-24T04:38:58;10.27;;;8.85;;
60472;SDS011;46318;52.716;6.444;2023-08-24T04:41:24;9.88;;;8.38;;
60472;SDS011;46318;52.716;6.444;2023-08-24T04:43:50;10.45;;;9.45;;
60472;SDS011;46318;52.716;6.444;2023-08-24T04:46:15;10.75;;;9.75;;
60472;SDS011;46318;52.716;6.444;2023-08-24T04:48:41;11.82;;;10.20;;
60472;SDS011;46318;52.716;6.444;2023-08-24T04:51:07;11.65;;;8.57;;
60472;SDS011;46318;52.716;6.444;2023-08-24T04:53:34;10.50;;;9.57;;
60472;SDS011;46318;52.716;6.444;2023-08-24T04:56:00;8.70;;;7.88;;
60472;SDS011;46318;52.716;6.444;2023-08-24T04:58:26;10.00;;;9.10;;
60472;SDS011;46318;52.716;6.444;2023-08-24T05:00:52;9.35;;;6.43;;
60472;SDS011;46318;52.716;6.444;2023-08-24T05:03:20;12.50;;;9.52;;
60472;SDS011;46318;52.716;6.444;2023-08-24T05:05:46;8.65;;;7.85;;
60472;SDS011;46318;52.716;6.444;2023-08-24T05:08:12;10.18;;;9.18;;
60472;SDS011;46318;52.716;6.444;2023-08-24T05:10:39;13.52;;;8.10;;
60472;SDS011;46318;52.716;6.444;2023-08-24T05:13:05;9.15;;;8.15;;
60472;SDS011;46318;52.716;6.444;2023-08-24T05:15:31;9.50;;;8.13;;
60472;SDS011;46318;52.716;6.444;2023-08-24T05:17:57;10.73;;;7.03;;
60472;SDS011;46318;52.716;6.444;2023-08-24T05:20:27;9.38;;;8.40;;
60472;SDS011;46318;52.716;6.444;2023-08-24T05:22:53;8.70;;;6.85;;
60472;SDS011;46318;52.716;6.444;2023-08-24T05:25:20;8.63;;;7.82;;
60472;SDS011;46318;52.716;6.444;2023-08-24T05:27:47;8.05;;;6.47;;
60472;SDS011;46318;52.716;6.444;2023-08-24T05:30:17;11.32;;;6.53;;
60472;SDS011;46318;52.716;6.444;2023-08-24T05:32:43;9.20;;;8.07;;
60472;SDS011;46318;52.716;6.444;2023-08-24T05:35:09;8.75;;;6.75;;
60472;SDS011;46318;52.716;6.444;2023-08-24T05:37:35;8.60;;;7.78;;
60472;SDS011;46318;52.716;6.444;2023-08-24T05:40:01;7.88;;;6.45;;
60472;SDS011;46318;52.716;6.444;2023-08-24T05:42:28;10.45;;;8.13;;
60472;SDS011;46318;52.716;6.444;2023-08-24T05:44:54;9.00;;;7.00;;
60472;SDS011;46318;52.716;6.444;2023-08-24T05:47:20;9.85;;;6.93;;
60472;SDS011;46318;52.716;6.444;2023-08-24T05:49:46;8.45;;;7.47;;
60472;SDS011;46318;52.716;6.444;2023-08-24T05:52:11;11.30;;;8.75;;
60472;SDS011;46318;52.716;6.444;2023-08-24T05:54:37;8.50;;;6.43;;
60472;SDS011;46318;52.716;6.444;2023-08-24T05:57:04;10.65;;;7.72;;
60472;SDS011;46318;52.716;6.444;2023-08-24T05:59:30;9.63;;;7.50;;
60472;SDS011;46318;52.716;6.444;2023-08-24T06:01:58;9.10;;;6.38;;
60472;SDS011;46318;52.716;6.444;2023-08-24T06:04:24;8.07;;;7.00;;
60472;SDS011;46318;52.716;6.444;2023-08-24T06:06:50;10.02;;;8.40;;
60472;SDS011;46318;52.716;6.444;2023-08-24T06:09:16;8.85;;;6.60;;
60472;SDS011;46318;52.716;6.444;2023-08-24T06:11:42;8.60;;;7.60;;
60472;SDS011;46318;52.716;6.444;2023-08-24T06:14:08;11.65;;;7.50;;
60472;SDS011;46318;52.716;6.444;2023-08-24T06:16:34;10.93;;;8.35;;
60472;SDS011;46318;52.716;6.444;2023-08-24T06:19:00;9.65;;;8.60;;
60472;SDS011;46318;52.716;6.444;2023-08-24T06:21:25;8.75;;;7.95;;
60472;SDS011;46318;52.716;6.444;2023-08-24T06:23:52;8.93;;;8.00;;
60472;SDS011;46318;52.716;6.444;2023-08-24T06:26:17;10.80;;;7.47;;
60472;SDS011;46318;52.716;6.444;2023-08-24T06:28:43;11.70;;;9.38;;
60472;SDS011;46318;52.716;6.444;2023-08-24T06:31:09;10.05;;;9.05;;
60472;SDS011;46318;52.716;6.444;2023-08-24T06:33:35;9.45;;;8.40;;
60472;SDS011;46318;52.716;6.444;2023-08-24T06:36:03;11.55;;;7.97;;
60472;SDS011;46318;52.716;6.444;2023-08-24T06:38:37;12.95;;;9.35;;
60472;SDS011;46318;52.716;6.444;2023-08-24T06:41:03;9.45;;;8.55;;
60472;SDS011;46318;52.716;6.444;2023-08-24T06:43:29;9.57;;;7.65;;
60472;SDS011;46318;52.716;6.444;2023-08-24T06:45:55;12.05;;;8.95;;
60472;SDS011;46318;52.716;6.444;2023-08-24T06:48:21;12.13;;;10.68;;
60472;SDS011;46318;52.716;6.444;2023-08-24T06:50:47;13.77;;;10.38;;
60472;SDS011;46318;52.716;6.444;2023-08-24T06:53:13;12.02;;;10.68;;
60472;SDS011;46318;52.716;6.444;2023-08-24T06:55:40;12.07;;;10.77;;
60472;SDS011;46318;52.716;6.444;2023-08-24T06:58:06;12.00;;;10.73;;
60472;SDS011;46318;52.716;6.444;2023-08-24T07:00:32;12.38;;;10.13;;
60472;SDS011;46318;52.716;6.444;2023-08-24T07:03:01;11.98;;;10.80;;
60472;SDS011;46318;52.716;6.444;2023-08-24T07:05:27;12.13;;;10.90;;
60472;SDS011;46318;52.716;6.444;2023-08-24T07:07:54;15.40;;;11.52;;
60472;SDS011;46318;52.716;6.444;2023-08-24T07:10:20;14.82;;;12.23;;
60472;SDS011;46318;52.716;6.444;2023-08-24T07:12:46;12.10;;;10.82;;
60472;SDS011;46318;52.716;6.444;2023-08-24T07:15:12;11.70;;;10.50;;
60472;SDS011;46318;52.716;6.444;2023-08-24T07:17:38;13.40;;;12.00;;
60472;SDS011;46318;52.716;6.444;2023-08-24T07:20:05;13.32;;;11.55;;
60472;SDS011;46318;52.716;6.444;2023-08-24T07:22:33;11.85;;;10.60;;
60472;SDS011;46318;52.716;6.444;2023-08-24T07:25:00;11.63;;;10.52;;
60472;SDS011;46318;52.716;6.444;2023-08-24T07:27:30;12.82;;;11.55;;
60472;SDS011;46318;52.716;6.444;2023-08-24T07:29:59;11.57;;;10.40;;
60472;SDS011;46318;52.716;6.444;2023-08-24T07:32:28;13.65;;;11.52;;
60472;SDS011;46318;52.716;6.444;2023-08-24T07:34:55;12.77;;;11.57;;
60472;SDS011;46318;52.716;6.444;2023-08-24T07:37:22;11.57;;;10.40;;
60472;SDS011;46318;52.716;6.444;2023-08-24T07:39:48;12.18;;;10.95;;
60472;SDS011;46318;52.716;6.444;2023-08-24T07:42:14;11.77;;;10.07;;
60472;SDS011;46318;52.716;6.444;2023-08-24T07:44:42;11.48;;;10.43;;
60472;SDS011;46318;52.716;6.444;2023-08-24T07:47:08;10.95;;;10.00;;
60472;SDS011;46318;52.716;6.444;2023-08-24T07:49:34;11.70;;;10.60;;
60472;SDS011;46318;52.716;6.444;2023-08-24T07:52:00;12.82;;;10.50;;
60472;SDS011;46318;52.716;6.444;2023-08-24T07:54:25;11.63;;;10.50;;
60472;SDS011;46318;52.716;6.444;2023-08-24T07:56:51;12.65;;;10.38;;
60472;SDS011;46318;52.716;6.444;2023-08-24T07:59:17;10.85;;;9.75;;
60472;SDS011;46318;52.716;6.444;2023-08-24T08:01:43;10.77;;;9.77;;
60472;SDS011;46318;52.716;6.444;2023-08-24T08:04:09;12.75;;;9.85;;
60472;SDS011;46318;52.716;6.444;2023-08-24T08:06:35;12.05;;;10.85;;
60472;SDS011;46318;52.716;6.444;2023-08-24T08:09:01;13.25;;;9.95;;
60472;SDS011;46318;52.716;6.444;2023-08-24T08:11:27;10.27;;;9.30;;
60472;SDS011;46318;52.716;6.444;2023-08-24T08:13:53;10.90;;;9.82;;
60472;SDS011;46318;52.716;6.444;2023-08-24T08:16:19;10.85;;;9.82;;
60472;SDS011;46318;52.716;6.444;2023-08-24T08:18:45;11.98;;;10.65;;
60472;SDS011;46318;52.716;6.444;2023-08-24T08:21:14;11.23;;;10.05;;
60472;SDS011;46318;52.716;6.444;2023-08-24T08:23:45;12.90;;;11.32;;
60472;SDS011;46318;52.716;6.444;2023-08-24T08:26:12;12.07;;;10.88;;
60472;SDS011;46318;52.716;6.444;2023-08-24T08:28:41;11.23;;;9.57;;
60472;SDS011;46318;52.716;6.444;2023-08-24T08:31:07;12.13;;;10.63;;
60472;SDS011;46318;52.716;6.444;2023-08-24T08:33:33;12.75;;;10.32;;
60472;SDS011;46318;52.716;6.444;2023-08-24T08:35:59;12.70;;;10.32;;
60472;SDS011;46318;52.716;6.444;2023-08-24T08:38:25;12.23;;;11.02;;
60472;SDS011;46318;52.716;6.444;2023-08-24T08:40:51;12.43;;;11.23;;
60472;SDS011;46318;52.716;6.444;2023-08-24T08:43:28;12.20;;;11.00;;
60472;SDS011;46318;52.716;6.444;2023-08-24T08:45:55;11.57;;;10.40;;
60472;SDS011;46318;52.716;6.444;2023-08-24T08:48:22;11.63;;;10.60;;
60472;SDS011;46318;52.716;6.444;2023-08-24T08:50:49;11.70;;;10.60;;
60472;SDS011;46318;52.716;6.444;2023-08-24T08:53:22;12.25;;;11.05;;
60472;SDS011;46318;52.716;6.444;2023-08-24T08:55:50;12.13;;;10.45;;
60472;SDS011;46318;52.716;6.444;2023-08-24T08:58:18;11.90;;;10.75;;
60472;SDS011;46318;52.716;6.444;2023-08-24T09:00:46;12.32;;;10.45;;
60472;SDS011;46318;52.716;6.444;2023-08-24T09:03:13;11.05;;;9.90;;
60472;SDS011;46318;52.716;6.444;2023-08-24T09:05:43;11.27;;;10.18;;
60472;SDS011;46318;52.716;6.444;2023-08-24T09:08:13;11.23;;;10.02;;
60472;SDS011;46318;52.716;6.444;2023-08-24T09:10:41;13.70;;;10.60;;
60472;SDS011;46318;52.716;6.444;2023-08-24T09:13:07;11.77;;;10.68;;
60472;SDS011;46318;52.716;6.444;2023-08-24T09:15:36;10.77;;;9.75;;
60472;SDS011;46318;52.716;6.444;2023-08-24T09:18:02;12.30;;;9.50;;
60472;SDS011;46318;52.716;6.444;2023-08-24T09:20:29;10.57;;;9.57;;
60472;SDS011;46318;52.716;6.444;2023-08-24T09:22:55;10.25;;;9.13;;
60472;SDS011;46318;52.716;6.444;2023-08-24T09:25:23;8.68;;;7.97;;
60472;SDS011;46318;52.716;6.444;2023-08-24T09:27:59;11.52;;;9.15;;
60472;SDS011;46318;52.716;6.444;2023-08-24T09:30:30;12.98;;;9.05;;
60472;SDS011;46318;52.716;6.444;2023-08-24T09:33:09;10.70;;;9.60;;
60472;SDS011;46318;52.716;6.444;2023-08-24T09:35:36;11.65;;;9.75;;
60472;SDS011;46318;52.716;6.444;2023-08-24T09:38:18;10.13;;;8.93;;
60472;SDS011;46318;52.716;6.444;2023-08-24T09:40:46;13.50;;;9.50;;
60472;SDS011;46318;52.716;6.444;2023-08-24T09:43:18;10.32;;;8.88;;
60472;SDS011;46318;52.716;6.444;2023-08-24T09:45:54;10.40;;;9.32;;
60472;SDS011;46318;52.716;6.444;2023-08-24T09:48:21;11.70;;;9.18;;
60472;SDS011;46318;52.716;6.444;2023-08-24T09:50:52;10.75;;;9.13;;
60472;SDS011;46318;52.716;6.444;2023-08-24T09:53:18;11.73;;;10.52;;
60472;SDS011;46318;52.716;6.444;2023-08-24T09:58:24;10.60;;;9.50;;
60472;SDS011;46318;52.716;6.444;2023-08-24T10:00:51;10.65;;;9.65;;
60472;SDS011;46318;52.716;6.444;2023-08-24T10:03:18;10.63;;;9.55;;
60472;SDS011;46318;52.716;6.444;2023-08-24T10:05:53;10.70;;;9.70;;
60472;SDS011;46318;52.716;6.444;2023-08-24T10:08:27;10.70;;;9.73;;
60472;SDS011;46318;52.716;6.444;2023-08-24T10:11:05;11.55;;;10.45;;
60472;SDS011;46318;52.716;6.444;2023-08-24T10:16:07;14.75;;;10.30;;
60472;SDS011;46318;52.716;6.444;2023-08-24T10:18:36;11.38;;;10.25;;
60472;SDS011;46318;52.716;6.444;2023-08-24T10:21:02;11.10;;;9.95;;
60472;SDS011;46318;52.716;6.444;2023-08-24T10:23:31;11.52;;;10.43;;
60472;SDS011;46318;52.716;6.444;2023-08-24T10:26:00;11.45;;;10.55;;
60472;SDS011;46318;52.716;6.444;2023-08-24T10:28:29;11.68;;;10.65;;
60472;SDS011;46318;52.716;6.444;2023-08-24T10:30:57;13.05;;;11.38;;
60472;SDS011;46318;52.716;6.444;2023-08-24T10:33:25;12.20;;;10.73;;
60472;SDS011;46318;52.716;6.444;2023-08-24T10:35:54;12.35;;;11.15;;
60472;SDS011;46318;52.716;6.444;2023-08-24T10:38:23;11.32;;;10.25;;
60472;SDS011;46318;52.716;6.444;2023-08-24T10:40:51;11.00;;;9.93;;
60472;SDS011;46318;52.716;6.444;2023-08-24T10:43:17;11.55;;;10.45;;
60472;SDS011;46318;52.716;6.444;2023-08-24T10:45:56;11.35;;;10.25;;
60472;SDS011;46318;52.716;6.444;2023-08-24T10:48:25;11.67;;;10.13;;
60472;SDS011;46318;52.716;6.444;2023-08-24T10:56:17;11.55;;;10.35;;
60472;SDS011;46318;52.716;6.444;2023-08-24T10:58:44;10.35;;;9.40;;
60472;SDS011;46318;52.716;6.444;2023-08-24T11:01:17;9.68;;;8.75;;
60472;SDS011;46318;52.716;6.444;2023-08-24T11:03:50;11.15;;;9.95;;
60472;SDS011;46318;52.716;6.444;2023-08-24T11:06:24;8.48;;;7.78;;
60472;SDS011;46318;52.716;6.444;2023-08-24T11:09:12;11.55;;;10.55;;
60472;SDS011;46318;52.716;6.444;2023-08-24T11:11:40;11.30;;;10.20;;
60472;SDS011;46318;52.716;6.444;2023-08-24T11:14:13;11.48;;;10.35;;
60472;SDS011;46318;52.716;6.444;2023-08-24T11:16:42;11.63;;;10.30;;
60472;SDS011;46318;52.716;6.444;2023-08-24T11:19:10;11.57;;;10.38;;
60472;SDS011;46318;52.716;6.444;2023-08-24T11:21:40;11.13;;;10.07;;
60472;SDS011;46318;52.716;6.444;2023-08-24T11:24:09;12.18;;;11.15;;
60472;SDS011;46318;52.716;6.444;2023-08-24T11:26:42;11.75;;;10.65;;
60472;SDS011;46318;52.716;6.444;2023-08-24T11:29:10;12.63;;;11.63;;
60472;SDS011;46318;52.716;6.444;2023-08-24T11:31:36;11.30;;;10.23;;
60472;SDS011;46318;52.716;6.444;2023-08-24T11:34:03;12.10;;;11.00;;
60472;SDS011;46318;52.716;6.444;2023-08-24T11:36:31;11.98;;;9.60;;
60472;SDS011;46318;52.716;6.444;2023-08-24T11:39:06;11.95;;;10.95;;
60472;SDS011;46318;52.716;6.444;2023-08-24T11:41:32;13.02;;;11.75;;
60472;SDS011;46318;52.716;6.444;2023-08-24T11:43:59;11.93;;;10.77;;
60472;SDS011;46318;52.716;6.444;2023-08-24T11:46:27;12.88;;;11.57;;
60472;SDS011;46318;52.716;6.444;2023-08-24T11:48:55;14.98;;;10.32;;
60472;SDS011;46318;52.716;6.444;2023-08-24T11:51:22;12.45;;;11.25;;
60472;SDS011;46318;52.716;6.444;2023-08-24T11:53:48;11.40;;;10.27;;
60472;SDS011;46318;52.716;6.444;2023-08-24T11:56:14;11.55;;;9.82;;
60472;SDS011;46318;52.716;6.444;2023-08-24T11:58:42;9.85;;;9.10;;
60472;SDS011;46318;52.716;6.444;2023-08-24T12:01:11;11.82;;;10.63;;
60472;SDS011;46318;52.716;6.444;2023-08-24T12:03:38;10.98;;;9.98;;
60472;SDS011;46318;52.716;6.444;2023-08-24T12:06:11;12.20;;;11.00;;
60472;SDS011;46318;52.716;6.444;2023-08-24T12:08:43;11.70;;;10.70;;
60472;SDS011;46318;52.716;6.444;2023-08-24T12:13:49;11.90;;;10.70;;
60472;SDS011;46318;52.716;6.444;2023-08-24T12:16:20;12.07;;;10.90;;
60472;SDS011;46318;52.716;6.444;2023-08-24T12:18:57;10.35;;;9.35;;
60472;SDS011;46318;52.716;6.444;2023-08-24T12:21:30;11.48;;;10.35;;
60472;SDS011;46318;52.716;6.444;2023-08-24T12:26:31;12.75;;;10.23;;
60472;SDS011;46318;52.716;6.444;2023-08-24T12:29:02;11.82;;;10.57;;
60472;SDS011;46318;52.716;6.444;2023-08-24T12:31:50;11.45;;;10.35;;
60472;SDS011;46318;52.716;6.444;2023-08-24T12:34:16;11.95;;;10.65;;
60472;SDS011;46318;52.716;6.444;2023-08-24T12:36:42;10.90;;;10.00;;
60472;SDS011;46318;52.716;6.444;2023-08-24T12:39:10;10.98;;;9.90;;
60472;SDS011;46318;52.716;6.444;2023-08-24T12:41:40;12.23;;;11.13;;
60472;SDS011;46318;52.716;6.444;2023-08-24T12:44:06;11.68;;;10.50;;
60472;SDS011;46318;52.716;6.444;2023-08-24T12:46:37;11.00;;;10.10;;
60472;SDS011;46318;52.716;6.444;2023-08-24T12:49:03;11.00;;;10.02;;
60472;SDS011;46318;52.716;6.444;2023-08-24T12:51:29;11.52;;;9.77;;
60472;SDS011;46318;52.716;6.444;2023-08-24T12:53:55;11.48;;;10.27;;
60472;SDS011;46318;52.716;6.444;2023-08-24T12:56:21;11.32;;;10.23;;
60472;SDS011;46318;52.716;6.444;2023-08-24T12:58:47;11.57;;;10.38;;
60472;SDS011;46318;52.716;6.444;2023-08-24T13:01:13;10.75;;;9.70;;
60472;SDS011;46318;52.716;6.444;2023-08-24T13:03:39;11.73;;;10.07;;
60472;SDS011;46318;52.716;6.444;2023-08-24T13:06:05;12.45;;;10.88;;
60472;SDS011;46318;52.716;6.444;2023-08-24T13:08:31;10.55;;;9.63;;
60472;SDS011;46318;52.716;6.444;2023-08-24T13:10:57;10.98;;;9.98;;
60472;SDS011;46318;52.716;6.444;2023-08-24T13:13:24;10.57;;;9.68;;
60472;SDS011;46318;52.716;6.444;2023-08-24T13:15:49;11.10;;;10.10;;
60472;SDS011;46318;52.716;6.444;2023-08-24T13:18:16;11.93;;;10.75;;
60472;SDS011;46318;52.716;6.444;2023-08-24T13:20:46;12.43;;;9.60;;
60472;SDS011;46318;52.716;6.444;2023-08-24T13:23:14;10.55;;;9.55;;
60472;SDS011;46318;52.716;6.444;2023-08-24T13:25:40;10.23;;;9.25;;
60472;SDS011;46318;52.716;6.444;2023-08-24T13:28:06;10.70;;;9.35;;
60472;SDS011;46318;52.716;6.444;2023-08-24T13:30:32;10.63;;;9.52;;
60472;SDS011;46318;52.716;6.444;2023-08-24T13:32:58;11.93;;;9.07;;
60472;SDS011;46318;52.716;6.444;2023-08-24T13:35:27;10.38;;;8.50;;
60472;SDS011;46318;52.716;6.444;2023-08-24T13:37:54;11.68;;;10.48;;
60472;SDS011;46318;52.716;6.444;2023-08-24T13:40:20;10.93;;;9.82;;
60472;SDS011;46318;52.716;6.444;2023-08-24T13:42:49;11.10;;;9.35;;
60472;SDS011;46318;52.716;6.444;2023-08-24T13:45:15;10.73;;;9.73;;
60472;SDS011;46318;52.716;6.444;2023-08-24T13:47:41;11.30;;;9.80;;
60472;SDS011;46318;52.716;6.444;2023-08-24T13:50:08;11.75;;;10.55;;
60472;SDS011;46318;52.716;6.444;2023-08-24T13:52:34;10.23;;;8.60;;
60472;SDS011;46318;52.716;6.444;2023-08-24T13:55:00;10.85;;;9.85;;
60472;SDS011;46318;52.716;6.444;2023-08-24T13:57:28;9.70;;;8.77;;
60472;SDS011;46318;52.716;6.444;2023-08-24T13:59:55;10.70;;;9.60;;
60472;SDS011;46318;52.716;6.444;2023-08-24T14:02:21;11.38;;;10.35;;
60472;SDS011;46318;52.716;6.444;2023-08-24T14:04:47;9.93;;;9.02;;
60472;SDS011;46318;52.716;6.444;2023-08-24T14:07:13;9.85;;;8.85;;
60472;SDS011;46318;52.716;6.444;2023-08-24T14:09:38;9.95;;;8.95;;
60472;SDS011;46318;52.716;6.444;2023-08-24T14:12:04;10.20;;;8.40;;
60472;SDS011;46318;52.716;6.444;2023-08-24T14:14:31;11.90;;;9.10;;
60472;SDS011;46318;52.716;6.444;2023-08-24T14:16:56;10.63;;;7.85;;
60472;SDS011;46318;52.716;6.444;2023-08-24T14:19:23;9.50;;;8.57;;
60472;SDS011;46318;52.716;6.444;2023-08-24T14:21:49;9.90;;;8.88;;
60472;SDS011;46318;52.716;6.444;2023-08-24T14:24:15;9.20;;;8.18;;
60472;SDS011;46318;52.716;6.444;2023-08-24T14:26:41;10.25;;;9.05;;
60472;SDS011;46318;52.716;6.444;2023-08-24T14:29:10;10.30;;;8.40;;
60472;SDS011;46318;52.716;6.444;2023-08-24T14:31:37;11.15;;;9.80;;
60472;SDS011;46318;52.716;6.444;2023-08-24T14:34:03;19.27;;;9.57;;
60472;SDS011;46318;52.716;6.444;2023-08-24T14:36:29;11.18;;;10.05;;
60472;SDS011;46318;52.716;6.444;2023-08-24T14:38:56;10.80;;;9.75;;
60472;SDS011;46318;52.716;6.444;2023-08-24T14:41:23;9.60;;;8.45;;
60472;SDS011;46318;52.716;6.444;2023-08-24T14:43:49;11.30;;;10.10;;
60472;SDS011;46318;52.716;6.444;2023-08-24T14:46:15;10.20;;;9.40;;
60472;SDS011;46318;52.716;6.444;2023-08-24T14:48:43;10.10;;;8.85;;
60472;SDS011;46318;52.716;6.444;2023-08-24T14:51:11;11.02;;;10.00;;
60472;SDS011;46318;52.716;6.444;2023-08-24T14:53:38;9.50;;;8.63;;
60472;SDS011;46318;52.716;6.444;2023-08-24T14:56:03;10.88;;;9.82;;
60472;SDS011;46318;52.716;6.444;2023-08-24T14:58:29;10.52;;;9.63;;